createdAt,value
2017-01-05T00:00:31.454Z,1006.91
2017-01-05T00:01:31.566Z,1006.9
2017-01-05T00:02:31.403Z,1006.87
2017-01-05T00:03:31.428Z,1006.96
2017-01-05T00:04:31.369Z,1006.88
2017-01-05T00:05:31.501Z,1006.89
2017-01-05T00:06:31.443Z,1006.96
2017-01-05T00:07:31.508Z,1007.03
2017-01-05T00:08:31.564Z,1007.03
2017-01-05T00:09:31.431Z,1006.96
2017-01-05T00:10:31.561Z,1006.93
2017-01-05T00:11:31.383Z,1007
2017-01-05T00:12:31.577Z,1006.99
2017-01-05T00:13:31.576Z,1007
2017-01-05T00:14:31.477Z,1007.02
2017-01-05T00:15:32.022Z,1007.05
2017-01-05T00:16:31.447Z,1007.03
2017-01-05T00:17:31.620Z,1007.06
2017-01-05T00:18:31.981Z,1007.05
2017-01-05T00:19:31.563Z,1007.03
2017-01-05T00:20:31.759Z,1007.05
2017-01-05T00:21:31.557Z,1007.09
2017-01-05T00:22:31.633Z,1007.12
2017-01-05T00:23:31.652Z,1007.11
2017-01-05T00:24:31.660Z,1007.1
2017-01-05T00:25:31.650Z,1007.14
2017-01-05T00:26:31.604Z,1007.13
2017-01-05T00:27:31.767Z,1007.16
2017-01-05T00:28:31.697Z,1007.15
2017-01-05T00:29:31.973Z,1007.21
2017-01-05T00:30:31.652Z,1007.23
2017-01-05T00:31:31.657Z,1007.23
2017-01-05T00:32:32.071Z,1007.22
2017-01-05T00:33:31.768Z,1007.22
2017-01-05T00:34:31.740Z,1007.28
2017-01-05T00:35:31.782Z,1007.28
2017-01-05T00:36:31.997Z,1007.31
2017-01-05T00:37:31.872Z,1007.32
2017-01-05T00:38:31.784Z,1007.36
2017-01-05T00:39:31.783Z,1007.36
2017-01-05T00:40:31.669Z,1007.32
2017-01-05T00:41:31.793Z,1007.45
2017-01-05T00:42:32.003Z,1007.43
2017-01-05T00:43:32.182Z,1007.44
2017-01-05T00:44:31.845Z,1007.43
2017-01-05T00:45:32.097Z,1007.48
2017-01-05T00:46:32.007Z,1007.48
2017-01-05T00:47:32.057Z,1007.45
2017-01-05T00:48:31.847Z,1007.42
2017-01-05T00:49:31.940Z,1007.47
2017-01-05T00:50:31.893Z,1007.49
2017-01-05T00:51:32.103Z,1007.53
2017-01-05T00:52:31.949Z,1007.55
2017-01-05T00:53:31.948Z,1007.52
2017-01-05T00:54:32.021Z,1007.59
2017-01-05T00:55:31.884Z,1007.58
2017-01-05T00:56:32.017Z,1007.57
2017-01-05T00:57:32.263Z,1007.6
2017-01-05T00:58:32.097Z,1007.59
2017-01-05T00:59:31.938Z,1007.69
2017-01-05T01:00:31.963Z,1007.64
2017-01-05T01:01:32.014Z,1007.64
2017-01-05T01:02:32.030Z,1007.66
2017-01-05T01:03:32.238Z,1007.66
2017-01-05T01:04:31.967Z,1007.65
2017-01-05T01:05:32.064Z,1007.69
2017-01-05T01:06:32.183Z,1007.7
2017-01-05T01:07:32.157Z,1007.67
2017-01-05T01:08:31.997Z,1007.67
2017-01-05T01:09:32.345Z,1007.65
2017-01-05T01:10:32.167Z,1007.63
2017-01-05T01:11:32.246Z,1007.69
2017-01-05T01:12:32.456Z,1007.74
2017-01-05T01:13:32.195Z,1007.74
2017-01-05T01:14:32.091Z,1007.79
2017-01-05T01:15:32.717Z,1007.78
2017-01-05T01:16:32.266Z,1007.79
2017-01-05T01:17:32.412Z,1007.81
2017-01-05T01:18:32.338Z,1007.86
2017-01-05T01:19:32.315Z,1007.84
2017-01-05T01:20:32.332Z,1007.88
2017-01-05T01:21:32.635Z,1007.96
2017-01-05T01:22:32.392Z,1007.98
2017-01-05T01:23:32.435Z,1007.98
2017-01-05T01:24:32.491Z,1008
2017-01-05T01:25:32.257Z,1008.03
2017-01-05T01:26:32.469Z,1008.1
2017-01-05T01:27:32.312Z,1008.12
2017-01-05T01:28:32.532Z,1008.14
2017-01-05T01:29:32.312Z,1008.15
2017-01-05T01:30:32.346Z,1008.19
2017-01-05T01:31:32.386Z,1008.25
2017-01-05T01:32:32.590Z,1008.26
2017-01-05T01:33:32.402Z,1008.23
2017-01-05T01:34:32.541Z,1008.23
2017-01-05T01:35:32.297Z,1008.28
2017-01-05T01:36:32.548Z,1008.31
2017-01-05T01:37:33.191Z,1008.28
2017-01-05T01:38:32.548Z,1008.3
2017-01-05T01:39:32.444Z,1008.34
2017-01-05T01:40:32.571Z,1008.36
2017-01-05T01:41:32.636Z,1008.33
2017-01-05T01:42:32.580Z,1008.34
2017-01-05T01:43:32.641Z,1008.38
2017-01-05T01:44:32.514Z,1008.4
2017-01-05T01:45:32.581Z,1008.42
2017-01-05T01:46:32.535Z,1008.43
2017-01-05T01:47:32.513Z,1008.38
2017-01-05T01:48:32.526Z,1008.39
2017-01-05T01:49:32.535Z,1008.48
2017-01-05T01:50:32.531Z,1008.43
2017-01-05T01:51:32.561Z,1008.42
2017-01-05T01:52:32.572Z,1008.5
2017-01-05T01:53:32.518Z,1008.46
2017-01-05T01:54:32.682Z,1008.5
2017-01-05T01:55:32.823Z,1008.49
2017-01-05T01:56:32.569Z,1008.52
2017-01-05T01:57:32.728Z,1008.51
2017-01-05T01:58:32.926Z,1008.59
2017-01-05T01:59:32.634Z,1008.57
2017-01-05T02:00:32.953Z,1008.6
2017-01-05T02:01:32.758Z,1008.59
2017-01-05T02:02:32.742Z,1008.64
2017-01-05T02:03:32.790Z,1008.65
2017-01-05T02:04:32.703Z,1008.62
2017-01-05T02:05:32.745Z,1008.61
2017-01-05T02:06:33.231Z,1008.65
2017-01-05T02:07:32.904Z,1008.72
2017-01-05T02:08:32.777Z,1008.68
2017-01-05T02:09:33.126Z,1008.73
2017-01-05T02:10:33.016Z,1008.71
2017-01-05T02:11:32.863Z,1008.67
2017-01-05T02:12:32.851Z,1008.67
2017-01-05T02:13:33.173Z,1008.73
2017-01-05T02:14:32.878Z,1008.71
2017-01-05T02:15:32.867Z,1008.76
2017-01-05T02:16:32.920Z,1008.76
2017-01-05T02:17:33.113Z,1008.78
2017-01-05T02:18:32.883Z,1008.76
2017-01-05T02:19:32.975Z,1008.78
2017-01-05T02:20:32.942Z,1008.81
2017-01-05T02:21:32.859Z,1008.85
2017-01-05T02:22:33.124Z,1008.92
2017-01-05T02:23:32.934Z,1008.91
2017-01-05T02:24:33.038Z,1008.94
2017-01-05T02:25:33.289Z,1008.96
2017-01-05T02:26:33.099Z,1009.01
2017-01-05T02:27:33.040Z,1009.01
2017-01-05T02:28:33.170Z,1009.03
2017-01-05T02:29:33.121Z,1009.08
2017-01-05T02:30:33.094Z,1009.06
2017-01-05T02:31:33.131Z,1009.08
2017-01-05T02:32:33.009Z,1009.11
2017-01-05T02:33:33.040Z,1009.15
2017-01-05T02:34:33.300Z,1009.22
2017-01-05T02:35:33.055Z,1009.18
2017-01-05T02:36:33.156Z,1009.22
2017-01-05T02:37:33.109Z,1009.22
2017-01-05T02:38:33.144Z,1009.24
2017-01-05T02:39:33.075Z,1009.3
2017-01-05T02:40:33.066Z,1009.3
2017-01-05T02:41:33.072Z,1009.29
2017-01-05T02:42:33.118Z,1009.26
2017-01-05T02:43:33.138Z,1009.25
2017-01-05T02:44:33.144Z,1009.27
2017-01-05T02:45:33.349Z,1009.28
2017-01-05T02:46:33.585Z,1009.26
2017-01-05T02:47:33.359Z,1009.23
2017-01-05T02:48:33.143Z,1009.18
2017-01-05T02:49:33.167Z,1009.22
2017-01-05T02:50:33.228Z,1009.25
2017-01-05T02:51:33.243Z,1009.33
2017-01-05T02:52:33.235Z,1009.31
2017-01-05T02:53:33.299Z,1009.34
2017-01-05T02:54:33.346Z,1009.42
2017-01-05T02:55:33.429Z,1009.44
2017-01-05T02:56:33.372Z,1009.47
2017-01-05T02:57:33.263Z,1009.52
2017-01-05T02:58:33.498Z,1009.56
2017-01-05T02:59:33.380Z,1009.57
2017-01-05T03:00:33.336Z,1009.59
2017-01-05T03:01:33.578Z,1009.6
2017-01-05T03:02:33.371Z,1009.6
2017-01-05T03:03:33.479Z,1009.57
2017-01-05T03:04:33.296Z,1009.58
2017-01-05T03:05:33.328Z,1009.64
2017-01-05T03:06:33.547Z,1009.63
2017-01-05T03:07:33.429Z,1009.66
2017-01-05T03:08:33.350Z,1009.71
2017-01-05T03:09:33.716Z,1009.73
2017-01-05T03:10:33.505Z,1009.74
2017-01-05T03:11:33.365Z,1009.74
2017-01-05T03:12:33.623Z,1009.79
2017-01-05T03:13:33.489Z,1009.78
2017-01-05T03:14:33.488Z,1009.82
2017-01-05T03:15:33.530Z,1009.86
2017-01-05T03:16:33.735Z,1009.88
2017-01-05T03:17:33.756Z,1009.85
2017-01-05T03:18:33.585Z,1009.93
2017-01-05T03:19:33.529Z,1009.91
2017-01-05T03:20:33.498Z,1009.9
2017-01-05T03:21:33.595Z,1009.94
2017-01-05T03:22:33.727Z,1009.96
2017-01-05T03:23:33.660Z,1009.98
2017-01-05T03:24:33.724Z,1009.98
2017-01-05T03:25:33.685Z,1010.06
2017-01-05T03:26:33.649Z,1010.05
2017-01-05T03:27:33.652Z,1010.04
2017-01-05T03:28:33.611Z,1010.08
2017-01-05T03:29:33.640Z,1010.16
2017-01-05T03:30:33.634Z,1010.17
2017-01-05T03:31:33.726Z,1010.21
2017-01-05T03:32:33.930Z,1010.2
2017-01-05T03:33:33.699Z,1010.25
2017-01-05T03:34:33.887Z,1010.27
2017-01-05T03:35:33.682Z,1010.21
2017-01-05T03:36:34.117Z,1010.28
2017-01-05T03:37:34.081Z,1010.28
2017-01-05T03:38:33.672Z,1010.31
2017-01-05T03:39:33.874Z,1010.36
2017-01-05T03:40:34.007Z,1010.38
2017-01-05T03:41:33.907Z,1010.37
2017-01-05T03:42:33.971Z,1010.42
2017-01-05T03:43:33.978Z,1010.41
2017-01-05T03:44:33.860Z,1010.42
2017-01-05T03:45:34.032Z,1010.42
2017-01-05T03:46:34.065Z,1010.51
2017-01-05T03:47:33.934Z,1010.52
2017-01-05T03:48:33.977Z,1010.53
2017-01-05T03:49:33.934Z,1010.54
2017-01-05T03:50:34.170Z,1010.61
2017-01-05T03:51:33.913Z,1010.58
2017-01-05T03:52:33.879Z,1010.61
2017-01-05T03:53:33.976Z,1010.58
2017-01-05T03:54:33.975Z,1010.65
2017-01-05T03:55:33.976Z,1010.68
2017-01-05T03:56:34.127Z,1010.75
2017-01-05T03:57:34.049Z,1010.77
2017-01-05T03:58:33.961Z,1010.8
2017-01-05T03:59:34.211Z,1010.8
2017-01-05T04:00:34.135Z,1010.86
2017-01-05T04:01:34.246Z,1010.85
2017-01-05T04:02:34.190Z,1010.82
2017-01-05T04:03:34.206Z,1010.85
2017-01-05T04:04:34.559Z,1010.85
2017-01-05T04:05:34.178Z,1010.87
2017-01-05T04:06:34.022Z,1010.91
2017-01-05T04:07:34.139Z,1010.93
2017-01-05T04:08:34.614Z,1011.01
2017-01-05T04:09:34.141Z,1011
2017-01-05T04:10:34.181Z,1011.05
2017-01-05T04:11:34.319Z,1011.06
2017-01-05T04:12:34.262Z,1011.04
2017-01-05T04:13:34.172Z,1011.1
2017-01-05T04:14:34.095Z,1011.11
2017-01-05T04:15:34.109Z,1011.07
2017-01-05T04:16:34.092Z,1011.1
2017-01-05T04:17:34.533Z,1011.1
2017-01-05T04:18:34.205Z,1011.1
2017-01-05T04:19:34.231Z,1011.2
2017-01-05T04:20:34.223Z,1011.16
2017-01-05T04:21:34.184Z,1011.18
2017-01-05T04:22:34.498Z,1011.21
2017-01-05T04:23:34.284Z,1011.24
2017-01-05T04:24:34.589Z,1011.24
2017-01-05T04:25:34.450Z,1011.23
2017-01-05T04:26:34.221Z,1011.24
2017-01-05T04:27:34.589Z,1011.2
2017-01-05T04:28:34.332Z,1011.25
2017-01-05T04:29:34.597Z,1011.19
2017-01-05T04:30:34.370Z,1011.22
2017-01-05T04:31:34.615Z,1011.25
2017-01-05T04:32:34.774Z,1011.25
2017-01-05T04:33:34.700Z,1011.31
2017-01-05T04:34:34.408Z,1011.35
2017-01-05T04:35:34.361Z,1011.45
2017-01-05T04:36:34.666Z,1011.43
2017-01-05T04:37:34.416Z,1011.44
2017-01-05T04:38:34.439Z,1011.45
2017-01-05T04:39:34.464Z,1011.49
2017-01-05T04:40:34.440Z,1011.48
2017-01-05T04:41:34.484Z,1011.49
2017-01-05T04:42:34.536Z,1011.51
2017-01-05T04:43:34.537Z,1011.58
2017-01-05T04:44:34.545Z,1011.59
2017-01-05T04:45:34.767Z,1011.63
2017-01-05T04:46:34.440Z,1011.63
2017-01-05T04:47:34.549Z,1011.59
2017-01-05T04:48:34.777Z,1011.66
2017-01-05T04:49:34.500Z,1011.66
2017-01-05T04:50:34.626Z,1011.61
2017-01-05T04:51:34.637Z,1011.63
2017-01-05T04:52:34.624Z,1011.61
2017-01-05T04:53:34.742Z,1011.64
2017-01-05T04:54:34.685Z,1011.7
2017-01-05T04:55:34.679Z,1011.72
2017-01-05T04:56:34.685Z,1011.71
2017-01-05T04:57:34.785Z,1011.75
2017-01-05T04:58:34.664Z,1011.75
2017-01-05T04:59:34.695Z,1011.76
2017-01-05T05:00:34.695Z,1011.79
2017-01-05T05:01:34.810Z,1011.78
2017-01-05T05:02:35.160Z,1011.83
2017-01-05T05:03:34.628Z,1011.89
2017-01-05T05:04:34.850Z,1011.91
2017-01-05T05:05:34.771Z,1011.88
2017-01-05T05:06:34.754Z,1011.92
2017-01-05T05:07:34.778Z,1011.88
2017-01-05T05:08:34.848Z,1011.89
2017-01-05T05:09:34.738Z,1011.84
2017-01-05T05:10:35.164Z,1011.88
2017-01-05T05:11:35.039Z,1011.96
2017-01-05T05:12:35.507Z,1011.94
2017-01-05T05:13:34.943Z,1011.96
2017-01-05T05:14:35.129Z,1011.99
2017-01-05T05:15:35.325Z,1012.03
2017-01-05T05:16:35.085Z,1012.02
2017-01-05T05:17:35.132Z,1012.01
2017-01-05T05:18:35.121Z,1012.02
2017-01-05T05:19:35.353Z,1012.03
2017-01-05T05:20:35.238Z,1012.06
2017-01-05T05:21:35.842Z,1012.06
2017-01-05T05:22:35.485Z,1012.05
2017-01-05T05:23:35.355Z,1012.05
2017-01-05T05:24:35.218Z,1012.03
2017-01-05T05:25:35.181Z,1012.1
2017-01-05T05:26:35.483Z,1012.09
2017-01-05T05:27:35.475Z,1012.13
2017-01-05T05:28:35.447Z,1012.18
2017-01-05T05:29:35.370Z,1012.18
2017-01-05T05:30:35.370Z,1012.22
2017-01-05T05:31:35.349Z,1012.19
2017-01-05T05:32:35.287Z,1012.24
2017-01-05T05:33:35.636Z,1012.28
2017-01-05T05:34:35.080Z,1012.26
2017-01-05T05:35:35.122Z,1012.29
2017-01-05T05:36:35.375Z,1012.31
2017-01-05T05:37:35.703Z,1012.31
2017-01-05T05:38:35.888Z,1012.31
2017-01-05T05:39:35.397Z,1012.35
2017-01-05T05:40:35.644Z,1012.35
2017-01-05T05:41:35.413Z,1012.39
2017-01-05T05:42:35.390Z,1012.38
2017-01-05T05:43:35.384Z,1012.44
2017-01-05T05:44:35.643Z,1012.46
2017-01-05T05:45:35.781Z,1012.5
2017-01-05T05:46:35.348Z,1012.51
2017-01-05T05:47:35.157Z,1012.53
2017-01-05T05:48:35.753Z,1012.55
2017-01-05T05:49:35.356Z,1012.56
2017-01-05T05:50:35.364Z,1012.61
2017-01-05T05:51:35.351Z,1012.63
2017-01-05T05:52:35.647Z,1012.69
2017-01-05T05:53:36.132Z,1012.68
2017-01-05T05:54:36.273Z,1012.67
2017-01-05T05:55:35.634Z,1012.7
2017-01-05T05:56:35.586Z,1012.73
2017-01-05T05:57:35.567Z,1012.8
2017-01-05T05:58:35.666Z,1012.79
2017-01-05T05:59:35.443Z,1012.83
2017-01-05T06:00:35.817Z,1012.88
2017-01-05T06:01:35.624Z,1012.82
2017-01-05T06:02:35.539Z,1012.85
2017-01-05T06:03:35.770Z,1012.93
2017-01-05T06:04:35.807Z,1012.86
2017-01-05T06:05:35.863Z,1012.9
2017-01-05T06:06:35.509Z,1012.94
2017-01-05T06:07:35.534Z,1012.92
2017-01-05T06:08:35.641Z,1012.9
2017-01-05T06:09:35.970Z,1012.91
2017-01-05T06:10:35.591Z,1012.94
2017-01-05T06:11:35.696Z,1012.99
2017-01-05T06:12:35.571Z,1012.95
2017-01-05T06:13:35.505Z,1013.03
2017-01-05T06:14:35.570Z,1013.08
2017-01-05T06:15:35.944Z,1013.06
2017-01-05T06:16:36.023Z,1013.08
2017-01-05T06:17:35.699Z,1013.1
2017-01-05T06:18:35.923Z,1013.16
2017-01-05T06:19:35.566Z,1013.09
2017-01-05T06:20:35.795Z,1013.1
2017-01-05T06:21:35.697Z,1013.12
2017-01-05T06:22:35.591Z,1013.15
2017-01-05T06:23:35.572Z,1013.16
2017-01-05T06:24:35.904Z,1013.19
2017-01-05T06:25:35.787Z,1013.17
2017-01-05T06:26:35.658Z,1013.21
2017-01-05T06:27:36.055Z,1013.25
2017-01-05T06:28:35.760Z,1013.29
2017-01-05T06:29:35.835Z,1013.28
2017-01-05T06:30:35.740Z,1013.29
2017-01-05T06:31:35.795Z,1013.31
2017-01-05T06:32:36.285Z,1013.37
2017-01-05T06:33:35.791Z,1013.41
2017-01-05T06:34:35.797Z,1013.4
2017-01-05T06:35:35.816Z,1013.42
2017-01-05T06:36:35.789Z,1013.46
2017-01-05T06:37:35.807Z,1013.49
2017-01-05T06:38:35.775Z,1013.5
2017-01-05T06:39:35.876Z,1013.58
2017-01-05T06:40:35.777Z,1013.58
2017-01-05T06:41:35.821Z,1013.56
2017-01-05T06:42:36.248Z,1013.59
2017-01-05T06:43:36.099Z,1013.6
2017-01-05T06:44:36.130Z,1013.59
2017-01-05T06:45:36.275Z,1013.59
2017-01-05T06:46:35.807Z,1013.64
2017-01-05T06:47:36.115Z,1013.65
2017-01-05T06:48:36.461Z,1013.67
2017-01-05T06:49:36.254Z,1013.68
2017-01-05T06:50:35.942Z,1013.7
2017-01-05T06:51:36.143Z,1013.73
2017-01-05T06:52:36.137Z,1013.75
2017-01-05T06:53:36.272Z,1013.81
2017-01-05T06:54:36.498Z,1013.82
2017-01-05T06:55:36.197Z,1013.82
2017-01-05T06:56:36.248Z,1013.82
2017-01-05T06:57:36.539Z,1013.9
2017-01-05T06:58:36.174Z,1013.92
2017-01-05T06:59:36.411Z,1013.95
2017-01-05T07:00:36.200Z,1014.02
2017-01-05T07:01:36.134Z,1013.99
2017-01-05T07:02:36.788Z,1014.01
2017-01-05T07:03:36.494Z,1014.02
2017-01-05T07:04:36.288Z,1014.03
2017-01-05T07:05:36.267Z,1014.07
2017-01-05T07:06:36.769Z,1014.12
2017-01-05T07:07:36.156Z,1014.13
2017-01-05T07:08:36.647Z,1014.14
2017-01-05T07:09:36.124Z,1014.19
2017-01-05T07:10:36.655Z,1014.23
2017-01-05T07:11:36.972Z,1014.19
2017-01-05T07:12:36.326Z,1014.24
2017-01-05T07:13:36.643Z,1014.26
2017-01-05T07:14:36.412Z,1014.26
2017-01-05T07:15:36.518Z,1014.26
2017-01-05T07:16:36.420Z,1014.27
2017-01-05T07:18:36.364Z,1014.3
2017-01-05T07:19:37.032Z,1014.32
2017-01-05T07:20:36.573Z,1014.35
2017-01-05T07:21:36.288Z,1014.38
2017-01-05T07:22:36.875Z,1014.43
2017-01-05T07:23:37.745Z,1014.45
2017-01-05T07:24:36.361Z,1014.49
2017-01-05T07:26:36.659Z,1014.53
2017-01-05T07:27:36.435Z,1014.55
2017-01-05T07:28:36.493Z,1014.59
2017-01-05T07:29:36.588Z,1014.6
2017-01-05T07:30:36.991Z,1014.61
2017-01-05T07:31:37.256Z,1014.68
2017-01-05T07:32:36.436Z,1014.64
2017-01-05T07:33:36.312Z,1014.67
2017-01-05T07:34:36.726Z,1014.72
2017-01-05T07:35:36.775Z,1014.76
2017-01-05T07:36:36.786Z,1014.77
2017-01-05T07:37:36.485Z,1014.8
2017-01-05T07:38:36.964Z,1014.79
2017-01-05T07:39:36.983Z,1014.83
2017-01-05T07:40:37.206Z,1014.8
2017-01-05T07:41:36.947Z,1014.82
2017-01-05T07:42:37.113Z,1014.87
2017-01-05T07:43:36.544Z,1014.86
2017-01-05T07:44:36.541Z,1014.84
2017-01-05T07:45:36.510Z,1014.89
2017-01-05T07:46:36.785Z,1014.93
2017-01-05T07:47:36.666Z,1014.94
2017-01-05T07:48:36.747Z,1014.94
2017-01-05T07:49:36.615Z,1014.96
2017-01-05T07:50:36.721Z,1014.95
2017-01-05T07:51:36.602Z,1014.98
2017-01-05T07:52:36.609Z,1015.01
2017-01-05T07:53:36.818Z,1015.01
2017-01-05T07:54:36.762Z,1015.04
2017-01-05T07:55:36.671Z,1015.04
2017-01-05T07:56:36.680Z,1015
2017-01-05T07:57:36.947Z,1015.03
2017-01-05T07:58:36.755Z,1015.03
2017-01-05T07:59:36.923Z,1015.07
2017-01-05T08:00:36.740Z,1015.06
2017-01-05T08:01:36.645Z,1015.08
2017-01-05T08:02:36.679Z,1015.06
2017-01-05T08:03:36.729Z,1015.12
2017-01-05T08:04:36.956Z,1015.16
2017-01-05T08:05:36.698Z,1015.18
2017-01-05T08:06:36.821Z,1015.25
2017-01-05T08:07:36.861Z,1015.24
2017-01-05T08:08:36.788Z,1015.27
2017-01-05T08:09:36.921Z,1015.3
2017-01-05T08:10:36.763Z,1015.32
2017-01-05T08:11:36.776Z,1015.35
2017-01-05T08:12:37.338Z,1015.3
2017-01-05T08:13:37.136Z,1015.29
2017-01-05T08:14:36.963Z,1015.29
2017-01-05T08:15:36.891Z,1015.38
2017-01-05T08:16:37.132Z,1015.38
2017-01-05T08:17:37.308Z,1015.34
2017-01-05T08:18:37.499Z,1015.44
2017-01-05T08:19:36.832Z,1015.42
2017-01-05T08:20:37.157Z,1015.48
2017-01-05T08:21:36.950Z,1015.49
2017-01-05T08:22:37.238Z,1015.48
2017-01-05T08:23:36.965Z,1015.54
2017-01-05T08:24:36.910Z,1015.55
2017-01-05T08:25:37.049Z,1015.54
2017-01-05T08:26:37.021Z,1015.59
2017-01-05T08:27:36.961Z,1015.61
2017-01-05T08:28:36.977Z,1015.61
2017-01-05T08:29:37.000Z,1015.66
2017-01-05T08:30:37.125Z,1015.66
2017-01-05T08:31:37.285Z,1015.71
2017-01-05T08:32:37.158Z,1015.78
2017-01-05T08:33:36.990Z,1015.78
2017-01-05T08:34:36.975Z,1015.84
2017-01-05T08:35:37.297Z,1015.82
2017-01-05T08:36:37.364Z,1015.82
2017-01-05T08:37:37.245Z,1015.89
2017-01-05T08:38:37.082Z,1015.91
2017-01-05T08:39:37.312Z,1016.02
2017-01-05T08:40:37.199Z,1015.99
2017-01-05T08:41:37.238Z,1015.97
2017-01-05T08:42:37.233Z,1016.01
2017-01-05T08:43:37.283Z,1016.05
2017-01-05T08:44:37.490Z,1016.12
2017-01-05T08:45:37.197Z,1016.11
2017-01-05T08:46:37.464Z,1016.08
2017-01-05T08:47:37.173Z,1016.19
2017-01-05T08:48:37.196Z,1016.21
2017-01-05T08:49:37.232Z,1016.26
2017-01-05T08:50:37.663Z,1016.22
2017-01-05T08:51:37.170Z,1016.22
2017-01-05T08:52:37.390Z,1016.29
2017-01-05T08:53:37.349Z,1016.3
2017-01-05T08:54:37.562Z,1016.34
2017-01-05T08:55:37.166Z,1016.37
2017-01-05T08:56:37.210Z,1016.38
2017-01-05T08:57:37.250Z,1016.4
2017-01-05T08:58:37.245Z,1016.41
2017-01-05T08:59:37.322Z,1016.45
2017-01-05T09:00:37.287Z,1016.45
2017-01-05T09:01:37.326Z,1016.55
2017-01-05T09:02:37.495Z,1016.54
2017-01-05T09:03:37.322Z,1016.56
2017-01-05T09:04:37.528Z,1016.58
2017-01-05T09:05:37.605Z,1016.63
2017-01-05T09:06:37.387Z,1016.64
2017-01-05T09:07:37.601Z,1016.7
2017-01-05T09:08:37.349Z,1016.68
2017-01-05T09:09:37.569Z,1016.69
2017-01-05T09:10:37.762Z,1016.74
2017-01-05T09:11:37.540Z,1016.73
2017-01-05T09:12:37.354Z,1016.8
2017-01-05T09:13:37.440Z,1016.8
2017-01-05T09:14:38.006Z,1016.85
2017-01-05T09:15:37.518Z,1016.87
2017-01-05T09:16:37.733Z,1016.9
2017-01-05T09:17:37.697Z,1016.88
2017-01-05T09:18:37.690Z,1016.94
2017-01-05T09:19:37.540Z,1016.95
2017-01-05T09:20:37.694Z,1016.96
2017-01-05T09:21:37.739Z,1017.01
2017-01-05T09:22:37.580Z,1016.98
2017-01-05T09:23:37.735Z,1017.04
2017-01-05T09:24:37.643Z,1017.07
2017-01-05T09:25:37.703Z,1017.03
2017-01-05T09:26:37.598Z,1017.07
2017-01-05T09:27:38.070Z,1017.07
2017-01-05T09:28:37.764Z,1017.06
2017-01-05T09:29:37.592Z,1017.1
2017-01-05T09:30:38.117Z,1017.12
2017-01-05T09:31:37.584Z,1017.12
2017-01-05T09:32:37.742Z,1017.14
2017-01-05T09:33:37.647Z,1017.18
2017-01-05T09:34:37.766Z,1017.22
2017-01-05T09:35:37.758Z,1017.28
2017-01-05T09:36:37.737Z,1017.25
2017-01-05T09:37:37.917Z,1017.27
2017-01-05T09:38:37.738Z,1017.28
2017-01-05T09:39:37.855Z,1017.35
2017-01-05T09:40:38.281Z,1017.3
2017-01-05T09:41:37.993Z,1017.39
2017-01-05T09:42:37.817Z,1017.42
2017-01-05T09:43:38.005Z,1017.43
2017-01-05T09:44:37.765Z,1017.44
2017-01-05T09:45:37.750Z,1017.49
2017-01-05T09:46:37.848Z,1017.51
2017-01-05T09:47:37.781Z,1017.51
2017-01-05T09:48:37.967Z,1017.54
2017-01-05T09:49:37.961Z,1017.57
2017-01-05T09:50:37.891Z,1017.62
2017-01-05T09:51:38.181Z,1017.56
2017-01-05T09:52:37.997Z,1017.6
2017-01-05T09:53:38.364Z,1017.6
2017-01-05T09:54:37.917Z,1017.66
2017-01-05T09:55:38.216Z,1017.67
2017-01-05T09:56:38.142Z,1017.61
2017-01-05T09:57:37.917Z,1017.61
2017-01-05T09:58:38.033Z,1017.67
2017-01-05T09:59:37.990Z,1017.67
2017-01-05T10:00:38.042Z,1017.71
2017-01-05T10:01:38.113Z,1017.78
2017-01-05T10:02:38.065Z,1017.76
2017-01-05T10:03:37.990Z,1017.84
2017-01-05T10:04:38.048Z,1017.84
2017-01-05T10:05:38.096Z,1017.82
2017-01-05T10:06:38.230Z,1017.86
2017-01-05T10:07:38.164Z,1017.87
2017-01-05T10:08:38.127Z,1017.89
2017-01-05T10:09:38.183Z,1017.91
2017-01-05T10:10:38.104Z,1017.86
2017-01-05T10:11:38.054Z,1017.92
2017-01-05T10:12:38.260Z,1017.91
2017-01-05T10:13:38.059Z,1017.92
2017-01-05T10:14:38.156Z,1017.98
2017-01-05T10:15:38.292Z,1017.93
2017-01-05T10:16:38.148Z,1017.92
2017-01-05T10:17:38.239Z,1017.94
2017-01-05T10:18:38.463Z,1017.95
2017-01-05T10:19:38.449Z,1018
2017-01-05T10:20:38.322Z,1017.97
2017-01-05T10:21:38.407Z,1018.06
2017-01-05T10:22:38.651Z,1018.02
2017-01-05T10:23:38.471Z,1018.03
2017-01-05T10:24:38.294Z,1018.03
2017-01-05T10:25:38.395Z,1018.06
2017-01-05T10:26:38.362Z,1018.08
2017-01-05T10:27:38.292Z,1018.05
2017-01-05T10:28:38.561Z,1018.07
2017-01-05T10:29:38.316Z,1018.1
2017-01-05T10:30:38.391Z,1018.18
2017-01-05T10:31:38.324Z,1018.2
2017-01-05T10:32:38.347Z,1018.17
2017-01-05T10:33:38.443Z,1018.18
2017-01-05T10:34:38.471Z,1018.19
2017-01-05T10:35:38.515Z,1018.18
2017-01-05T10:36:38.357Z,1018.2
2017-01-05T10:37:38.584Z,1018.21
2017-01-05T10:38:38.484Z,1018.25
2017-01-05T10:39:38.650Z,1018.26
2017-01-05T10:40:38.644Z,1018.32
2017-01-05T10:41:38.611Z,1018.31
2017-01-05T10:42:38.449Z,1018.31
2017-01-05T10:43:38.777Z,1018.32
2017-01-05T10:44:38.626Z,1018.33
2017-01-05T10:45:38.589Z,1018.33
2017-01-05T10:46:38.508Z,1018.34
2017-01-05T10:47:38.581Z,1018.36
2017-01-05T10:48:38.734Z,1018.33
2017-01-05T10:49:38.745Z,1018.33
2017-01-05T10:50:38.716Z,1018.33
2017-01-05T10:51:38.668Z,1018.35
2017-01-05T10:52:38.603Z,1018.39
2017-01-05T10:53:38.696Z,1018.45
2017-01-05T10:54:38.589Z,1018.45
2017-01-05T10:55:38.920Z,1018.46
2017-01-05T10:56:38.688Z,1018.5
2017-01-05T10:57:39.163Z,1018.56
2017-01-05T10:58:38.850Z,1018.57
2017-01-05T10:59:38.716Z,1018.57
2017-01-05T11:00:39.079Z,1018.58
2017-01-05T11:01:38.875Z,1018.54
2017-01-05T11:02:38.892Z,1018.58
2017-01-05T11:03:38.893Z,1018.57
2017-01-05T11:04:38.828Z,1018.58
2017-01-05T11:05:39.211Z,1018.6
2017-01-05T11:06:38.953Z,1018.57
2017-01-05T11:07:38.780Z,1018.56
2017-01-05T11:08:38.821Z,1018.56
2017-01-05T11:09:38.936Z,1018.51
2017-01-05T11:10:38.884Z,1018.56
2017-01-05T11:11:38.910Z,1018.61
2017-01-05T11:12:38.866Z,1018.59
2017-01-05T11:13:38.955Z,1018.54
2017-01-05T11:14:38.979Z,1018.58
2017-01-05T11:15:38.945Z,1018.58
2017-01-05T11:16:38.854Z,1018.62
2017-01-05T11:17:39.051Z,1018.61
2017-01-05T11:18:38.919Z,1018.66
2017-01-05T11:19:38.895Z,1018.63
2017-01-05T11:20:38.973Z,1018.65
2017-01-05T11:21:38.967Z,1018.61
2017-01-05T11:22:38.958Z,1018.62
2017-01-05T11:23:38.945Z,1018.61
2017-01-05T11:24:39.081Z,1018.66
2017-01-05T11:25:39.303Z,1018.71
2017-01-05T11:26:39.303Z,1018.74
2017-01-05T11:27:39.017Z,1018.76
2017-01-05T11:28:39.009Z,1018.77
2017-01-05T11:29:38.988Z,1018.78
2017-01-05T11:30:39.264Z,1018.79
2017-01-05T11:31:39.670Z,1018.84
2017-01-05T11:32:39.244Z,1018.82
2017-01-05T11:33:39.812Z,1018.85
2017-01-05T11:34:39.175Z,1018.83
2017-01-05T11:35:39.274Z,1018.79
2017-01-05T11:36:39.259Z,1018.81
2017-01-05T11:37:39.197Z,1018.75
2017-01-05T11:38:39.275Z,1018.81
2017-01-05T11:39:39.212Z,1018.75
2017-01-05T11:40:39.400Z,1018.8
2017-01-05T11:41:39.220Z,1018.75
2017-01-05T11:42:39.179Z,1018.77
2017-01-05T11:43:39.193Z,1018.78
2017-01-05T11:44:39.280Z,1018.73
2017-01-05T11:45:39.905Z,1018.8
2017-01-05T11:46:39.645Z,1018.76
2017-01-05T11:47:39.310Z,1018.78
2017-01-05T11:48:39.407Z,1018.77
2017-01-05T11:49:39.403Z,1018.82
2017-01-05T11:50:39.360Z,1018.8
2017-01-05T11:51:39.274Z,1018.84
2017-01-05T11:52:39.591Z,1018.83
2017-01-05T11:53:39.425Z,1018.86
2017-01-05T11:54:39.397Z,1018.86
2017-01-05T11:55:39.523Z,1018.88
2017-01-05T11:56:39.412Z,1018.92
2017-01-05T11:57:39.592Z,1018.94
2017-01-05T11:58:39.962Z,1018.95
2017-01-05T11:59:39.370Z,1018.97
2017-01-05T12:00:39.390Z,1018.97
2017-01-05T12:01:39.489Z,1018.98
2017-01-05T12:02:39.710Z,1018.97
2017-01-05T12:03:39.488Z,1019.03
2017-01-05T12:04:39.436Z,1019.06
2017-01-05T12:05:39.684Z,1019.15
2017-01-05T12:06:40.146Z,1019.12
2017-01-05T12:07:39.511Z,1019.17
2017-01-05T12:08:39.459Z,1019.17
2017-01-05T12:09:39.797Z,1019.19
2017-01-05T12:10:39.834Z,1019.24